sensor_id;sensor_type;location;lat;lon;timestamp;temperature;humidity
32366;DHT22;18837;46.832;16.838;2022-08-26T00:01:23;24.40;75.00
32366;DHT22;18837;46.832;16.838;2022-08-26T00:03:49;24.40;75.10
32366;DHT22;18837;46.832;16.838;2022-08-26T00:06:15;24.40;75.40
32366;DHT22;18837;46.832;16.838;2022-08-26T00:08:41;24.40;75.00
32366;DHT22;18837;46.832;16.838;2022-08-26T00:11:07;24.40;75.00
32366;DHT22;18837;46.832;16.838;2022-08-26T00:13:34;24.40;74.90
32366;DHT22;18837;46.832;16.838;2022-08-26T00:16:01;24.40;74.90
32366;DHT22;18837;46.832;16.838;2022-08-26T00:18:27;24.40;74.90
32366;DHT22;18837;46.832;16.838;2022-08-26T00:20:53;24.40;74.80
32366;DHT22;18837;46.832;16.838;2022-08-26T00:23:19;24.30;75.20
32366;DHT22;18837;46.832;16.838;2022-08-26T00:25:46;24.30;74.90
32366;DHT22;18837;46.832;16.838;2022-08-26T00:28:12;24.30;74.90
32366;DHT22;18837;46.832;16.838;2022-08-26T00:30:38;24.30;74.90
32366;DHT22;18837;46.832;16.838;2022-08-26T00:33:04;24.30;75.00
32366;DHT22;18837;46.832;16.838;2022-08-26T00:35:31;24.30;75.00
32366;DHT22;18837;46.832;16.838;2022-08-26T00:37:58;24.30;75.10
32366;DHT22;18837;46.832;16.838;2022-08-26T00:40:36;24.30;75.10
32366;DHT22;18837;46.832;16.838;2022-08-26T00:43:03;24.20;75.30
32366;DHT22;18837;46.832;16.838;2022-08-26T00:46:09;24.20;75.30
32366;DHT22;18837;46.832;16.838;2022-08-26T00:48:37;24.10;76.40
32366;DHT22;18837;46.832;16.838;2022-08-26T00:51:08;24.10;75.70
32366;DHT22;18837;46.832;16.838;2022-08-26T00:53:40;24.10;75.70
32366;DHT22;18837;46.832;16.838;2022-08-26T00:56:12;24.10;76.00
32366;DHT22;18837;46.832;16.838;2022-08-26T00:58:40;24.00;76.50
32366;DHT22;18837;46.832;16.838;2022-08-26T01:01:10;24.00;76.00
32366;DHT22;18837;46.832;16.838;2022-08-26T01:03:36;24.00;76.10
32366;DHT22;18837;46.832;16.838;2022-08-26T01:06:02;23.90;75.90
32366;DHT22;18837;46.832;16.838;2022-08-26T01:08:29;23.90;76.10
32366;DHT22;18837;46.832;16.838;2022-08-26T01:10:56;23.90;76.10
32366;DHT22;18837;46.832;16.838;2022-08-26T01:13:23;23.90;76.10
32366;DHT22;18837;46.832;16.838;2022-08-26T01:15:55;23.90;76.00
32366;DHT22;18837;46.832;16.838;2022-08-26T01:18:21;23.90;75.80
32366;DHT22;18837;46.832;16.838;2022-08-26T01:23:33;24.00;76.50
32366;DHT22;18837;46.832;16.838;2022-08-26T01:26:03;24.00;75.70
32366;DHT22;18837;46.832;16.838;2022-08-26T01:28:32;24.00;75.70
32366;DHT22;18837;46.832;16.838;2022-08-26T01:30:58;24.00;75.50
32366;DHT22;18837;46.832;16.838;2022-08-26T01:33:43;24.00;75.60
32366;DHT22;18837;46.832;16.838;2022-08-26T01:36:13;24.00;76.20
32366;DHT22;18837;46.832;16.838;2022-08-26T01:38:40;24.00;75.60
32366;DHT22;18837;46.832;16.838;2022-08-26T01:41:08;24.00;75.60
32366;DHT22;18837;46.832;16.838;2022-08-26T01:43:36;23.90;75.60
32366;DHT22;18837;46.832;16.838;2022-08-26T01:46:03;24.00;75.60
32366;DHT22;18837;46.832;16.838;2022-08-26T01:48:31;23.90;75.50
32366;DHT22;18837;46.832;16.838;2022-08-26T01:51:00;23.90;75.40
32366;DHT22;18837;46.832;16.838;2022-08-26T01:53:26;24.00;75.70
32366;DHT22;18837;46.832;16.838;2022-08-26T01:55:55;23.90;75.40
32366;DHT22;18837;46.832;16.838;2022-08-26T01:58:30;24.00;75.50
32366;DHT22;18837;46.832;16.838;2022-08-26T02:00:57;23.90;75.50
32366;DHT22;18837;46.832;16.838;2022-08-26T02:03:24;23.90;76.20
32366;DHT22;18837;46.832;16.838;2022-08-26T02:05:55;23.90;75.60
32366;DHT22;18837;46.832;16.838;2022-08-26T02:08:26;23.90;76.40
32366;DHT22;18837;46.832;16.838;2022-08-26T02:10:53;23.80;75.60
32366;DHT22;18837;46.832;16.838;2022-08-26T02:13:20;23.80;75.70
32366;DHT22;18837;46.832;16.838;2022-08-26T02:15:45;23.70;76.00
32366;DHT22;18837;46.832;16.838;2022-08-26T02:18:12;23.80;75.90
32366;DHT22;18837;46.832;16.838;2022-08-26T02:20:37;23.70;76.30
32366;DHT22;18837;46.832;16.838;2022-08-26T02:23:03;23.70;76.40
32366;DHT22;18837;46.832;16.838;2022-08-26T02:26:10;23.70;76.40
32366;DHT22;18837;46.832;16.838;2022-08-26T02:28:54;23.60;76.30
32366;DHT22;18837;46.832;16.838;2022-08-26T02:31:21;23.60;77.10
32366;DHT22;18837;46.832;16.838;2022-08-26T02:33:48;23.60;76.70
32366;DHT22;18837;46.832;16.838;2022-08-26T02:36:19;23.60;76.70
32366;DHT22;18837;46.832;16.838;2022-08-26T02:38:45;23.60;76.60
32366;DHT22;18837;46.832;16.838;2022-08-26T02:41:11;23.50;76.50
32366;DHT22;18837;46.832;16.838;2022-08-26T02:43:36;23.50;76.70
32366;DHT22;18837;46.832;16.838;2022-08-26T02:46:02;23.50;76.50
32366;DHT22;18837;46.832;16.838;2022-08-26T02:48:28;23.50;76.50
32366;DHT22;18837;46.832;16.838;2022-08-26T02:50:54;23.50;76.30
32366;DHT22;18837;46.832;16.838;2022-08-26T02:53:19;23.60;76.40
32366;DHT22;18837;46.832;16.838;2022-08-26T02:55:45;23.60;76.10
32366;DHT22;18837;46.832;16.838;2022-08-26T02:58:14;23.60;76.30
32366;DHT22;18837;46.832;16.838;2022-08-26T03:00:40;23.60;76.20
32366;DHT22;18837;46.832;16.838;2022-08-26T03:03:06;23.60;76.00
32366;DHT22;18837;46.832;16.838;2022-08-26T03:05:33;23.60;76.00
32366;DHT22;18837;46.832;16.838;2022-08-26T03:07:59;23.60;75.90
32366;DHT22;18837;46.832;16.838;2022-08-26T03:10:26;23.60;76.10
32366;DHT22;18837;46.832;16.838;2022-08-26T03:12:52;23.60;76.10
32366;DHT22;18837;46.832;16.838;2022-08-26T03:15:18;23.50;76.20
32366;DHT22;18837;46.832;16.838;2022-08-26T03:17:46;23.60;76.20
32366;DHT22;18837;46.832;16.838;2022-08-26T03:20:12;23.50;75.90
32366;DHT22;18837;46.832;16.838;2022-08-26T03:22:38;23.50;76.80
32366;DHT22;18837;46.832;16.838;2022-08-26T03:25:08;23.50;76.20
32366;DHT22;18837;46.832;16.838;2022-08-26T03:27:35;23.50;76.10
32366;DHT22;18837;46.832;16.838;2022-08-26T03:30:01;23.50;76.00
32366;DHT22;18837;46.832;16.838;2022-08-26T03:32:45;23.50;76.50
32366;DHT22;18837;46.832;16.838;2022-08-26T03:35:11;23.50;76.10
32366;DHT22;18837;46.832;16.838;2022-08-26T03:37:37;23.50;76.80
32366;DHT22;18837;46.832;16.838;2022-08-26T03:40:06;23.40;77.20
32366;DHT22;18837;46.832;16.838;2022-08-26T03:42:35;23.40;76.60
32366;DHT22;18837;46.832;16.838;2022-08-26T03:45:01;23.40;76.70
32366;DHT22;18837;46.832;16.838;2022-08-26T03:47:27;23.40;76.60
32366;DHT22;18837;46.832;16.838;2022-08-26T03:49:53;23.30;76.90
32366;DHT22;18837;46.832;16.838;2022-08-26T03:52:18;23.30;77.00
32366;DHT22;18837;46.832;16.838;2022-08-26T03:54:44;23.30;77.00
32366;DHT22;18837;46.832;16.838;2022-08-26T03:57:10;23.30;77.00
32366;DHT22;18837;46.832;16.838;2022-08-26T03:59:36;23.20;77.30
32366;DHT22;18837;46.832;16.838;2022-08-26T04:02:01;23.20;77.30
32366;DHT22;18837;46.832;16.838;2022-08-26T04:04:27;23.20;77.30
32366;DHT22;18837;46.832;16.838;2022-08-26T04:06:57;23.20;77.20
32366;DHT22;18837;46.832;16.838;2022-08-26T04:09:25;23.20;76.90
32366;DHT22;18837;46.832;16.838;2022-08-26T04:11:52;23.20;77.00
32366;DHT22;18837;46.832;16.838;2022-08-26T04:14:20;23.20;76.80
32366;DHT22;18837;46.832;16.838;2022-08-26T04:16:46;23.20;76.80
32366;DHT22;18837;46.832;16.838;2022-08-26T04:19:13;23.20;76.70
32366;DHT22;18837;46.832;16.838;2022-08-26T04:21:39;23.20;76.80
32366;DHT22;18837;46.832;16.838;2022-08-26T04:24:08;23.20;76.60
32366;DHT22;18837;46.832;16.838;2022-08-26T04:26:34;23.20;76.50
32366;DHT22;18837;46.832;16.838;2022-08-26T04:29:06;23.20;76.50
32366;DHT22;18837;46.832;16.838;2022-08-26T04:31:34;23.20;76.40
32366;DHT22;18837;46.832;16.838;2022-08-26T04:34:00;23.20;76.60
32366;DHT22;18837;46.832;16.838;2022-08-26T04:36:26;23.20;76.70
32366;DHT22;18837;46.832;16.838;2022-08-26T04:38:53;23.20;76.70
32366;DHT22;18837;46.832;16.838;2022-08-26T04:41:19;23.20;76.70
32366;DHT22;18837;46.832;16.838;2022-08-26T04:43:45;23.20;76.70
32366;DHT22;18837;46.832;16.838;2022-08-26T04:46:12;23.20;77.20
32366;DHT22;18837;46.832;16.838;2022-08-26T04:48:41;23.20;76.40
32366;DHT22;18837;46.832;16.838;2022-08-26T04:51:08;23.20;76.40
32366;DHT22;18837;46.832;16.838;2022-08-26T04:53:34;23.20;76.70
32366;DHT22;18837;46.832;16.838;2022-08-26T04:56:00;23.20;77.10
32366;DHT22;18837;46.832;16.838;2022-08-26T04:58:26;23.20;77.00
32366;DHT22;18837;46.832;16.838;2022-08-26T05:00:53;23.20;77.10
32366;DHT22;18837;46.832;16.838;2022-08-26T05:03:20;23.10;76.90
32366;DHT22;18837;46.832;16.838;2022-08-26T05:05:47;23.10;76.90
32366;DHT22;18837;46.832;16.838;2022-08-26T05:08:15;23.20;77.40
32366;DHT22;18837;46.832;16.838;2022-08-26T05:10:43;23.10;77.40
32366;DHT22;18837;46.832;16.838;2022-08-26T05:13:10;23.10;77.50
32366;DHT22;18837;46.832;16.838;2022-08-26T05:15:36;23.10;77.50
32366;DHT22;18837;46.832;16.838;2022-08-26T05:18:03;23.00;77.50
32366;DHT22;18837;46.832;16.838;2022-08-26T05:20:30;23.00;77.70
32366;DHT22;18837;46.832;16.838;2022-08-26T05:23:00;23.00;77.60
32366;DHT22;18837;46.832;16.838;2022-08-26T05:25:29;23.00;77.80
32366;DHT22;18837;46.832;16.838;2022-08-26T05:27:55;23.00;77.50
32366;DHT22;18837;46.832;16.838;2022-08-26T05:30:22;23.00;77.40
32366;DHT22;18837;46.832;16.838;2022-08-26T05:32:48;23.10;77.30
32366;DHT22;18837;46.832;16.838;2022-08-26T05:35:18;23.10;77.60
32366;DHT22;18837;46.832;16.838;2022-08-26T05:37:43;23.10;78.10
32366;DHT22;18837;46.832;16.838;2022-08-26T05:40:10;23.10;77.80
32366;DHT22;18837;46.832;16.838;2022-08-26T05:42:36;23.10;77.60
32366;DHT22;18837;46.832;16.838;2022-08-26T05:45:01;23.10;77.30
32366;DHT22;18837;46.832;16.838;2022-08-26T05:47:27;23.20;77.30
32366;DHT22;18837;46.832;16.838;2022-08-26T05:49:53;23.20;77.10
32366;DHT22;18837;46.832;16.838;2022-08-26T05:52:20;23.20;77.10
32366;DHT22;18837;46.832;16.838;2022-08-26T05:54:45;23.20;77.30
32366;DHT22;18837;46.832;16.838;2022-08-26T05:57:11;23.20;76.80
32366;DHT22;18837;46.832;16.838;2022-08-26T05:59:38;23.20;76.90
32366;DHT22;18837;46.832;16.838;2022-08-26T06:02:04;23.20;76.80
32366;DHT22;18837;46.832;16.838;2022-08-26T06:04:31;23.20;76.70
32366;DHT22;18837;46.832;16.838;2022-08-26T06:06:57;23.20;76.90
32366;DHT22;18837;46.832;16.838;2022-08-26T06:09:24;23.20;76.90
32366;DHT22;18837;46.832;16.838;2022-08-26T06:11:51;23.20;76.80
32366;DHT22;18837;46.832;16.838;2022-08-26T06:14:16;23.20;77.80
32366;DHT22;18837;46.832;16.838;2022-08-26T06:16:43;23.20;76.80
32366;DHT22;18837;46.832;16.838;2022-08-26T06:19:11;23.20;77.00
32366;DHT22;18837;46.832;16.838;2022-08-26T06:21:39;23.20;77.00
32366;DHT22;18837;46.832;16.838;2022-08-26T06:24:10;23.20;77.10
32366;DHT22;18837;46.832;16.838;2022-08-26T06:26:57;23.20;77.20
32366;DHT22;18837;46.832;16.838;2022-08-26T06:29:28;23.10;77.40
32366;DHT22;18837;46.832;16.838;2022-08-26T06:31:55;23.10;77.50
32366;DHT22;18837;46.832;16.838;2022-08-26T06:34:22;23.10;77.40
32366;DHT22;18837;46.832;16.838;2022-08-26T06:36:48;23.10;77.40
32366;DHT22;18837;46.832;16.838;2022-08-26T06:39:16;23.10;77.60
32366;DHT22;18837;46.832;16.838;2022-08-26T06:41:43;23.10;77.50
32366;DHT22;18837;46.832;16.838;2022-08-26T06:44:11;23.10;77.30
32366;DHT22;18837;46.832;16.838;2022-08-26T06:46:37;23.10;77.60
32366;DHT22;18837;46.832;16.838;2022-08-26T06:49:03;23.10;77.70
32366;DHT22;18837;46.832;16.838;2022-08-26T06:51:35;23.20;77.50
32366;DHT22;18837;46.832;16.838;2022-08-26T06:54:02;23.20;77.30
32366;DHT22;18837;46.832;16.838;2022-08-26T06:56:34;23.30;77.10
32366;DHT22;18837;46.832;16.838;2022-08-26T06:59:00;23.40;77.20
32366;DHT22;18837;46.832;16.838;2022-08-26T07:01:29;23.40;77.00
32366;DHT22;18837;46.832;16.838;2022-08-26T07:03:58;23.40;77.00
32366;DHT22;18837;46.832;16.838;2022-08-26T07:06:26;23.50;76.60
32366;DHT22;18837;46.832;16.838;2022-08-26T07:08:58;23.50;76.50
32366;DHT22;18837;46.832;16.838;2022-08-26T07:11:27;23.50;76.50
32366;DHT22;18837;46.832;16.838;2022-08-26T07:13:53;23.50;76.60
32366;DHT22;18837;46.832;16.838;2022-08-26T07:16:19;23.50;76.30
32366;DHT22;18837;46.832;16.838;2022-08-26T07:18:46;23.60;76.50
32366;DHT22;18837;46.832;16.838;2022-08-26T07:21:14;23.60;76.50
32366;DHT22;18837;46.832;16.838;2022-08-26T07:23:41;23.70;76.50
32366;DHT22;18837;46.832;16.838;2022-08-26T07:26:14;23.70;77.10
32366;DHT22;18837;46.832;16.838;2022-08-26T07:28:43;23.70;76.20
32366;DHT22;18837;46.832;16.838;2022-08-26T07:31:13;23.80;76.60
32366;DHT22;18837;46.832;16.838;2022-08-26T07:33:39;23.80;76.40
32366;DHT22;18837;46.832;16.838;2022-08-26T07:36:08;23.80;76.30
32366;DHT22;18837;46.832;16.838;2022-08-26T07:38:36;23.90;76.30
32366;DHT22;18837;46.832;16.838;2022-08-26T07:41:02;23.90;76.20
32366;DHT22;18837;46.832;16.838;2022-08-26T07:43:29;23.80;76.00
32366;DHT22;18837;46.832;16.838;2022-08-26T07:45:55;23.80;76.40
32366;DHT22;18837;46.832;16.838;2022-08-26T07:48:21;23.80;76.30
32366;DHT22;18837;46.832;16.838;2022-08-26T07:50:47;23.90;76.70
32366;DHT22;18837;46.832;16.838;2022-08-26T07:53:13;23.90;76.70
32366;DHT22;18837;46.832;16.838;2022-08-26T07:55:39;23.90;77.20
32366;DHT22;18837;46.832;16.838;2022-08-26T07:58:06;23.90;77.20
32366;DHT22;18837;46.832;16.838;2022-08-26T08:00:32;23.90;77.40
32366;DHT22;18837;46.832;16.838;2022-08-26T08:02:59;23.90;77.50
32366;DHT22;18837;46.832;16.838;2022-08-26T08:05:25;24.00;77.70
32366;DHT22;18837;46.832;16.838;2022-08-26T08:07:51;24.00;77.60
32366;DHT22;18837;46.832;16.838;2022-08-26T08:10:21;24.00;78.10
32366;DHT22;18837;46.832;16.838;2022-08-26T08:12:48;24.10;78.10
32366;DHT22;18837;46.832;16.838;2022-08-26T08:15:16;24.20;78.10
32366;DHT22;18837;46.832;16.838;2022-08-26T08:17:42;24.30;78.30
32366;DHT22;18837;46.832;16.838;2022-08-26T08:20:09;24.40;77.70
32366;DHT22;18837;46.832;16.838;2022-08-26T08:22:35;24.50;77.80
32366;DHT22;18837;46.832;16.838;2022-08-26T08:25:01;24.60;77.60
32366;DHT22;18837;46.832;16.838;2022-08-26T08:27:27;24.70;77.30
32366;DHT22;18837;46.832;16.838;2022-08-26T08:29:53;24.70;77.00
32366;DHT22;18837;46.832;16.838;2022-08-26T08:32:20;24.80;76.90
32366;DHT22;18837;46.832;16.838;2022-08-26T08:34:46;24.90;77.30
32366;DHT22;18837;46.832;16.838;2022-08-26T08:37:12;25.00;76.40
32366;DHT22;18837;46.832;16.838;2022-08-26T08:39:38;25.10;76.90
32366;DHT22;18837;46.832;16.838;2022-08-26T08:44:37;25.20;76.10
32366;DHT22;18837;46.832;16.838;2022-08-26T08:47:19;25.20;76.60
32366;DHT22;18837;46.832;16.838;2022-08-26T08:49:51;25.30;76.30
32366;DHT22;18837;46.832;16.838;2022-08-26T08:52:33;25.40;76.50
32366;DHT22;18837;46.832;16.838;2022-08-26T08:55:03;25.50;76.30
32366;DHT22;18837;46.832;16.838;2022-08-26T09:00:15;25.60;75.50
32366;DHT22;18837;46.832;16.838;2022-08-26T09:05:25;25.70;76.20
32366;DHT22;18837;46.832;16.838;2022-08-26T09:08:15;25.70;75.50
32366;DHT22;18837;46.832;16.838;2022-08-26T09:10:52;25.70;76.50
32366;DHT22;18837;46.832;16.838;2022-08-26T09:13:19;25.70;77.10
32366;DHT22;18837;46.832;16.838;2022-08-26T09:15:47;25.70;77.50
32366;DHT22;18837;46.832;16.838;2022-08-26T09:18:34;25.70;77.90
32366;DHT22;18837;46.832;16.838;2022-08-26T09:21:06;25.70;78.40
32366;DHT22;18837;46.832;16.838;2022-08-26T09:23:36;25.70;78.50
32366;DHT22;18837;46.832;16.838;2022-08-26T09:28:41;25.80;77.60
32366;DHT22;18837;46.832;16.838;2022-08-26T09:31:21;25.80;78.90
32366;DHT22;18837;46.832;16.838;2022-08-26T09:33:50;25.80;80.20
32366;DHT22;18837;46.832;16.838;2022-08-26T09:36:40;25.90;80.40
32366;DHT22;18837;46.832;16.838;2022-08-26T09:39:27;25.90;81.70
32366;DHT22;18837;46.832;16.838;2022-08-26T09:44:54;26.00;80.10
32366;DHT22;18837;46.832;16.838;2022-08-26T09:47:30;26.10;79.40
32366;DHT22;18837;46.832;16.838;2022-08-26T09:50:09;26.30;78.80
32366;DHT22;18837;46.832;16.838;2022-08-26T09:52:43;26.40;78.90
32366;DHT22;18837;46.832;16.838;2022-08-26T09:55:36;26.50;79.00
32366;DHT22;18837;46.832;16.838;2022-08-26T09:58:02;26.60;78.10
32366;DHT22;18837;46.832;16.838;2022-08-26T10:00:36;26.60;77.60
32366;DHT22;18837;46.832;16.838;2022-08-26T10:03:06;26.70;77.20
32366;DHT22;18837;46.832;16.838;2022-08-26T10:05:44;26.80;77.80
32366;DHT22;18837;46.832;16.838;2022-08-26T10:08:25;26.90;77.40
32366;DHT22;18837;46.832;16.838;2022-08-26T10:10:55;26.90;76.70
32366;DHT22;18837;46.832;16.838;2022-08-26T10:13:36;27.00;75.80
32366;DHT22;18837;46.832;16.838;2022-08-26T10:18:48;27.00;76.00
32366;DHT22;18837;46.832;16.838;2022-08-26T10:23:55;27.10;75.60
32366;DHT22;18837;46.832;16.838;2022-08-26T10:26:36;27.10;74.50
32366;DHT22;18837;46.832;16.838;2022-08-26T10:29:22;27.20;75.00
32366;DHT22;18837;46.832;16.838;2022-08-26T10:31:59;27.20;74.90
32366;DHT22;18837;46.832;16.838;2022-08-26T10:34:25;27.30;75.30
32366;DHT22;18837;46.832;16.838;2022-08-26T10:37:02;27.30;75.40
32366;DHT22;18837;46.832;16.838;2022-08-26T10:44:55;27.40;74.70
32366;DHT22;18837;46.832;16.838;2022-08-26T10:47:37;27.40;72.30
32366;DHT22;18837;46.832;16.838;2022-08-26T10:50:06;27.40;73.40
32366;DHT22;18837;46.832;16.838;2022-08-26T10:55:44;27.50;73.80
32366;DHT22;18837;46.832;16.838;2022-08-26T10:59:01;27.50;73.60
32366;DHT22;18837;46.832;16.838;2022-08-26T11:07:33;27.60;73.90
32366;DHT22;18837;46.832;16.838;2022-08-26T11:20:42;27.40;74.70
32366;DHT22;18837;46.832;16.838;2022-08-26T11:34:00;27.30;76.10
32366;DHT22;18837;46.832;16.838;2022-08-26T11:36:50;27.30;75.20
32366;DHT22;18837;46.832;16.838;2022-08-26T11:39:48;27.40;74.00
32366;DHT22;18837;46.832;16.838;2022-08-26T11:44:42;27.60;74.00
32366;DHT22;18837;46.832;16.838;2022-08-26T11:47:09;27.70;73.60
32366;DHT22;18837;46.832;16.838;2022-08-26T11:49:37;27.80;73.00
32366;DHT22;18837;46.832;16.838;2022-08-26T11:52:13;27.90;73.00
32366;DHT22;18837;46.832;16.838;2022-08-26T11:55:12;27.90;73.20
32366;DHT22;18837;46.832;16.838;2022-08-26T11:57:59;28.00;72.80
32366;DHT22;18837;46.832;16.838;2022-08-26T12:01:04;28.00;72.50
32366;DHT22;18837;46.832;16.838;2022-08-26T12:03:49;28.00;73.00
32366;DHT22;18837;46.832;16.838;2022-08-26T12:06:24;28.00;72.90
32366;DHT22;18837;46.832;16.838;2022-08-26T12:08:59;28.00;72.30
32366;DHT22;18837;46.832;16.838;2022-08-26T12:11:28;28.10;72.30
32366;DHT22;18837;46.832;16.838;2022-08-26T12:14:14;28.20;72.40
32366;DHT22;18837;46.832;16.838;2022-08-26T12:16:41;28.20;71.60
32366;DHT22;18837;46.832;16.838;2022-08-26T12:19:29;28.30;72.40
32366;DHT22;18837;46.832;16.838;2022-08-26T12:22:02;28.40;71.70
32366;DHT22;18837;46.832;16.838;2022-08-26T12:24:29;28.50;71.90
32366;DHT22;18837;46.832;16.838;2022-08-26T12:27:20;28.50;72.50
32366;DHT22;18837;46.832;16.838;2022-08-26T12:30:23;28.60;72.60
32366;DHT22;18837;46.832;16.838;2022-08-26T12:33:04;28.60;72.70
32366;DHT22;18837;46.832;16.838;2022-08-26T12:35:30;28.70;71.00
32366;DHT22;18837;46.832;16.838;2022-08-26T12:37:58;28.70;71.00
32366;DHT22;18837;46.832;16.838;2022-08-26T12:40:57;28.80;71.30
32366;DHT22;18837;46.832;16.838;2022-08-26T12:43:43;28.80;71.40
32366;DHT22;18837;46.832;16.838;2022-08-26T12:46:23;28.80;70.90
32366;DHT22;18837;46.832;16.838;2022-08-26T12:48:52;28.80;70.50
32366;DHT22;18837;46.832;16.838;2022-08-26T12:51:31;28.90;70.50
32366;DHT22;18837;46.832;16.838;2022-08-26T12:53:59;28.80;71.90
32366;DHT22;18837;46.832;16.838;2022-08-26T12:56:37;28.90;70.80
32366;DHT22;18837;46.832;16.838;2022-08-26T13:01:44;28.90;70.30
32366;DHT22;18837;46.832;16.838;2022-08-26T13:09:37;29.00;69.90
32366;DHT22;18837;46.832;16.838;2022-08-26T13:12:02;29.10;69.90
32366;DHT22;18837;46.832;16.838;2022-08-26T13:14:29;29.10;69.90
32366;DHT22;18837;46.832;16.838;2022-08-26T13:16:56;29.20;69.50
32366;DHT22;18837;46.832;16.838;2022-08-26T13:19:24;29.20;69.70
32366;DHT22;18837;46.832;16.838;2022-08-26T13:21:52;29.20;69.60
32366;DHT22;18837;46.832;16.838;2022-08-26T13:24:37;29.30;70.00
32366;DHT22;18837;46.832;16.838;2022-08-26T13:27:05;29.30;69.90
32366;DHT22;18837;46.832;16.838;2022-08-26T13:29:31;29.30;69.80
32366;DHT22;18837;46.832;16.838;2022-08-26T13:31:58;29.30;69.60
32366;DHT22;18837;46.832;16.838;2022-08-26T13:34:23;29.30;69.40
32366;DHT22;18837;46.832;16.838;2022-08-26T13:36:52;29.30;69.10
32366;DHT22;18837;46.832;16.838;2022-08-26T13:39:19;29.30;69.10
32366;DHT22;18837;46.832;16.838;2022-08-26T13:41:45;29.40;68.90
32366;DHT22;18837;46.832;16.838;2022-08-26T13:44:11;29.40;69.20
32366;DHT22;18837;46.832;16.838;2022-08-26T13:46:38;29.40;69.00
32366;DHT22;18837;46.832;16.838;2022-08-26T13:49:04;29.40;68.60
32366;DHT22;18837;46.832;16.838;2022-08-26T13:51:32;29.30;68.20
32366;DHT22;18837;46.832;16.838;2022-08-26T13:53:59;29.30;68.00
32366;DHT22;18837;46.832;16.838;2022-08-26T13:56:27;29.30;68.30
32366;DHT22;18837;46.832;16.838;2022-08-26T13:58:54;29.20;67.90
32366;DHT22;18837;46.832;16.838;2022-08-26T14:01:21;29.20;67.60
32366;DHT22;18837;46.832;16.838;2022-08-26T14:03:47;29.20;67.60
32366;DHT22;18837;46.832;16.838;2022-08-26T14:06:13;29.10;67.80
32366;DHT22;18837;46.832;16.838;2022-08-26T14:08:44;29.10;68.10
32366;DHT22;18837;46.832;16.838;2022-08-26T14:11:10;29.10;68.30
32366;DHT22;18837;46.832;16.838;2022-08-26T14:13:36;29.10;68.70
32366;DHT22;18837;46.832;16.838;2022-08-26T14:16:03;29.00;68.70
32366;DHT22;18837;46.832;16.838;2022-08-26T14:18:34;29.00;68.70
32366;DHT22;18837;46.832;16.838;2022-08-26T14:21:00;28.90;68.70
32366;DHT22;18837;46.832;16.838;2022-08-26T14:23:32;28.90;68.70
32366;DHT22;18837;46.832;16.838;2022-08-26T14:26:01;28.90;69.00
32366;DHT22;18837;46.832;16.838;2022-08-26T14:28:28;29.00;69.00
32366;DHT22;18837;46.832;16.838;2022-08-26T14:30:56;29.00;68.90
32366;DHT22;18837;46.832;16.838;2022-08-26T14:33:26;29.00;68.90
32366;DHT22;18837;46.832;16.838;2022-08-26T14:35:55;29.00;69.20
32366;DHT22;18837;46.832;16.838;2022-08-26T14:38:41;29.00;69.10
32366;DHT22;18837;46.832;16.838;2022-08-26T14:41:06;29.00;69.10
32366;DHT22;18837;46.832;16.838;2022-08-26T14:43:32;29.00;68.90
32366;DHT22;18837;46.832;16.838;2022-08-26T14:45:58;29.00;69.20
32366;DHT22;18837;46.832;16.838;2022-08-26T14:48:24;28.90;69.50
32366;DHT22;18837;46.832;16.838;2022-08-26T14:50:50;28.90;69.20
32366;DHT22;18837;46.832;16.838;2022-08-26T14:53:16;28.80;69.40
32366;DHT22;18837;46.832;16.838;2022-08-26T14:56:00;28.80;70.80
32366;DHT22;18837;46.832;16.838;2022-08-26T14:58:28;28.80;70.00
32366;DHT22;18837;46.832;16.838;2022-08-26T15:00:56;28.80;69.60
32366;DHT22;18837;46.832;16.838;2022-08-26T15:03:23;28.80;69.80
32366;DHT22;18837;46.832;16.838;2022-08-26T15:05:49;28.70;69.60
32366;DHT22;18837;46.832;16.838;2022-08-26T15:08:15;28.70;70.20
32366;DHT22;18837;46.832;16.838;2022-08-26T15:10:45;28.70;70.70
32366;DHT22;18837;46.832;16.838;2022-08-26T15:13:11;28.70;70.00
32366;DHT22;18837;46.832;16.838;2022-08-26T15:15:36;28.60;69.70
32366;DHT22;18837;46.832;16.838;2022-08-26T15:18:11;28.70;69.50
32366;DHT22;18837;46.832;16.838;2022-08-26T15:20:37;28.60;69.60
32366;DHT22;18837;46.832;16.838;2022-08-26T15:23:03;28.60;69.50
32366;DHT22;18837;46.832;16.838;2022-08-26T15:25:31;28.70;69.70
32366;DHT22;18837;46.832;16.838;2022-08-26T15:27:57;28.70;69.40
32366;DHT22;18837;46.832;16.838;2022-08-26T15:30:23;28.70;69.20
32366;DHT22;18837;46.832;16.838;2022-08-26T15:32:49;28.70;69.30
32366;DHT22;18837;46.832;16.838;2022-08-26T15:35:30;28.80;69.50
32366;DHT22;18837;46.832;16.838;2022-08-26T15:37:56;28.80;69.50
32366;DHT22;18837;46.832;16.838;2022-08-26T15:40:23;28.80;70.50
32366;DHT22;18837;46.832;16.838;2022-08-26T15:42:49;28.80;68.70
32366;DHT22;18837;46.832;16.838;2022-08-26T15:45:15;28.80;68.50
32366;DHT22;18837;46.832;16.838;2022-08-26T15:47:41;28.80;68.30
32366;DHT22;18837;46.832;16.838;2022-08-26T15:50:07;28.80;68.40
32366;DHT22;18837;46.832;16.838;2022-08-26T15:52:33;28.80;68.70
32366;DHT22;18837;46.832;16.838;2022-08-26T15:54:59;28.80;68.80
32366;DHT22;18837;46.832;16.838;2022-08-26T15:57:25;28.80;68.60
32366;DHT22;18837;46.832;16.838;2022-08-26T15:59:51;28.80;68.80
32366;DHT22;18837;46.832;16.838;2022-08-26T16:02:17;28.70;68.70
32366;DHT22;18837;46.832;16.838;2022-08-26T16:04:42;28.70;69.10
32366;DHT22;18837;46.832;16.838;2022-08-26T16:07:11;28.70;69.40
32366;DHT22;18837;46.832;16.838;2022-08-26T16:09:37;28.70;68.80
32366;DHT22;18837;46.832;16.838;2022-08-26T16:12:06;28.70;69.30
32366;DHT22;18837;46.832;16.838;2022-08-26T16:14:33;28.70;69.30
32366;DHT22;18837;46.832;16.838;2022-08-26T16:16:59;28.70;70.40
32366;DHT22;18837;46.832;16.838;2022-08-26T16:19:25;28.70;69.60
32366;DHT22;18837;46.832;16.838;2022-08-26T16:21:51;28.60;69.10
32366;DHT22;18837;46.832;16.838;2022-08-26T16:24:18;28.60;69.10
32366;DHT22;18837;46.832;16.838;2022-08-26T16:26:48;28.60;68.80
32366;DHT22;18837;46.832;16.838;2022-08-26T16:29:15;28.60;69.30
32366;DHT22;18837;46.832;16.838;2022-08-26T16:31:41;28.60;68.80
32366;DHT22;18837;46.832;16.838;2022-08-26T16:34:08;28.60;68.90
32366;DHT22;18837;46.832;16.838;2022-08-26T16:36:35;28.60;69.10
32366;DHT22;18837;46.832;16.838;2022-08-26T16:39:02;28.50;68.60